AirNav   Air Wisconsin Up To $57,000 Bonus
 
 1503 users online  

1IN5 Bottoms Brothers Airport
Somerville, Indiana, USA

GOING TO SOMERVILLE?


FAA INFORMATION EFFECTIVE 05 DECEMBER 2019

Location

FAA Identifier: 1IN5
Lat/Long: 38-17-05.1690N 087-22-55.0500W
38-17.086150N 087-22.917500W
38.2847692,-87.3819583
(estimated)
Elevation: 545 ft. / 166 m (estimated)
Variation: 00W (1985)
From city: 1 mile NW of SOMERVILLE, IN
Time zone: UTC -6 (UTC -5 during Daylight Saving Time)
Zip code: 47660

Airport Operations

Airport use: Private use. Permission required prior to landing
Activation date: 12/1977
Control tower: no
ARTCC: INDIANAPOLIS CENTER
FSS: TERRE HAUTE FLIGHT SERVICE STATION
Attendance: UNATNDD
Wind indicator: no
Segmented circle: no

Airport Communications

WX ASOS at EVV (16 nm SW): 120.2 (812-436-4681)

Nearby radio navigation aids

VOR radial/distance  VOR name  Freq  Var
PXVr037/27.9POCKET CITY VORTAC113.3003E
OWBr347/34.0OWENSBORO VOR/DME108.6004W
SAMr107/35.2SAMSVILLE VOR/DME116.6003E

Airport Services

Runway Information

Runway 18/36

Dimensions: 2200 x 100 ft. / 671 x 30 m
Surface: turf
RUNWAY 18  RUNWAY 36
Traffic pattern: leftleft

Airport Ownership and Management from official FAA records

Ownership: Privately-owned
Owner: STEPHEN E BOTTOMS
4633 S. SR 57
OAKLAND CITY, IN 47660
Phone (812) 664-1445
CELL 812-664-1445
Manager: STEPHEN E. BOTTOMS
4633 S. SR 57
OAKLAND CITY, IN 47660
Phone 812-795-2518

Additional Remarks

FOR CD CTC EVANSVILLE APCH AT 812-436-4690, WHEN APCH CLSD CTC INDIANAPOLIS ARTCC AT 317-247-2411.

Instrument Procedures

There are no published instrument procedures at 1IN5.

Some nearby airports with instrument procedures:

KEVV - Evansville Regional Airport (16 nm SW)
KHNB - Huntingburg Airport (20 nm E)
KAJG - Mount Carmel Municipal Airport (25 nm NW)
KDCY - Daviess County Airport (28 nm NE)
KLWV - Lawrenceville-Vincennes International Airport (31 nm N)
 
Loc | Ops | Rwys | IFR | FBO | Links
Com | Nav | Svcs | Stats | Notes
Area around 1IN5 (Bottoms Brothers Airport)
 
Road maps at: MapQuest Bing Google
 
Aerial photo
No photo
 
Sectional chart

 
Airport distance calculator
Flying to Bottoms Brothers Airport? Find the distance to fly.

From to 1IN5

Sunrise and sunset
Times for 05-Dec-2019
 Local
(UTC-6)
 Zulu
(UTC)
Morning civil twilight06:2312:23
Sunrise06:5212:52
Sunset16:2822:28
Evening civil twilight16:5722:57

Current date and time
Zulu (UTC)  05-Dec-2019 15:23:00
Local (UTC-6)  05-Dec-2019 09:23:00
 
METAR
KI19 
15nm S 
051455Z AUTO 00000KT 10SM CLR 02/M02 A3010 RMK AO2 T00241021
KEVV 
15nm SW 
051454Z 00000KT 10SM CLR 04/00 A3012 RMK AO2 SLP200 T00440000 52011
KHNB 
20nm E 
051456Z AUTO 00000KT 10SM CLR 03/03 A3012 RMK AO2 SLP204 T00330033 53015
KAJG 
25nm NW 
051455Z AUTO 10SM CLR 03/01 A3010 RMK AO2 T00320006
KDCY 
28nm NE 
051455Z AUTO 13003KT 10SM CLR 03/01 A3011 RMK AO2 T00300014
TAF
KEVV 
15nm SW 
051120Z 0512/0612 VRB03KT P6SM FEW250 FM051800 19007KT P6SM FEW250 FM060000 18005KT P6SM BKN200 FM060400 VRB04KT P6SM BKN090 FM060800 VRB03KT 6SM -SHRA OVC070
NOTAMs
Click for the latest NOTAMs
NOTAMs are issued by the DoD/FAA and will open in a separate window not controlled by AirNav.

 

 
 

Would you like to see your business listed on this page?

 If your business provides an interesting product or service to pilots, flight crews, aircraft, or users of the Bottoms Brothers Airport, you should consider listing it here.  To start the listing process, click on the button below
 
Add a business
 

Other Pages about Bottoms Brothers Airport

Update a link
 
Copyright © AirNav, LLC. All rights reserved. Privacy Policy  Contact